sensor_id;sensor_type;location;lat;lon;timestamp;temperature;humidity
65707;SHT31;52423;43.512;5.220;2024-02-04T00:02:22;8.24;69.62
65707;SHT31;52423;43.512;5.220;2024-02-04T00:04:50;8.20;70.09
65707;SHT31;52423;43.512;5.220;2024-02-04T00:07:16;8.18;69.79
65707;SHT31;52423;43.512;5.220;2024-02-04T00:09:41;8.21;69.64
65707;SHT31;52423;43.512;5.220;2024-02-04T00:12:09;8.18;69.35
65707;SHT31;52423;43.512;5.220;2024-02-04T00:14:34;8.14;69.13
65707;SHT31;52423;43.512;5.220;2024-02-04T00:17:01;8.18;69.82
65707;SHT31;52423;43.512;5.220;2024-02-04T00:19:26;8.17;69.07
65707;SHT31;52423;43.512;5.220;2024-02-04T00:21:52;8.15;69.42
65707;SHT31;52423;43.512;5.220;2024-02-04T00:24:18;8.05;69.97
65707;SHT31;52423;43.512;5.220;2024-02-04T00:26:46;7.97;70.43
65707;SHT31;52423;43.512;5.220;2024-02-04T00:29:12;7.87;70.48
65707;SHT31;52423;43.512;5.220;2024-02-04T00:31:37;7.83;71.28
65707;SHT31;52423;43.512;5.220;2024-02-04T00:34:03;7.84;70.98
65707;SHT31;52423;43.512;5.220;2024-02-04T00:36:29;7.83;71.25
65707;SHT31;52423;43.512;5.220;2024-02-04T00:38:55;7.80;71.02
65707;SHT31;52423;43.512;5.220;2024-02-04T00:41:20;7.74;71.39
65707;SHT31;52423;43.512;5.220;2024-02-04T00:43:46;7.65;72.11
65707;SHT31;52423;43.512;5.220;2024-02-04T00:46:11;7.69;71.38
65707;SHT31;52423;43.512;5.220;2024-02-04T00:48:37;7.63;71.87
65707;SHT31;52423;43.512;5.220;2024-02-04T00:51:03;7.62;71.78
65707;SHT31;52423;43.512;5.220;2024-02-04T00:53:28;7.62;71.79
65707;SHT31;52423;43.512;5.220;2024-02-04T00:56:00;7.52;72.73
65707;SHT31;52423;43.512;5.220;2024-02-04T00:58:25;7.60;72.00
65707;SHT31;52423;43.512;5.220;2024-02-04T01:00:51;7.58;72.32
65707;SHT31;52423;43.512;5.220;2024-02-04T01:03:16;7.53;72.00
65707;SHT31;52423;43.512;5.220;2024-02-04T01:05:42;7.52;72.15
65707;SHT31;52423;43.512;5.220;2024-02-04T01:08:07;7.55;71.81
65707;SHT31;52423;43.512;5.220;2024-02-04T01:10:32;7.49;72.26
65707;SHT31;52423;43.512;5.220;2024-02-04T01:12:58;7.48;72.16
65707;SHT31;52423;43.512;5.220;2024-02-04T01:15:23;7.46;72.55
65707;SHT31;52423;43.512;5.220;2024-02-04T01:17:48;7.45;72.53
65707;SHT31;52423;43.512;5.220;2024-02-04T01:20:14;7.52;72.18
65707;SHT31;52423;43.512;5.220;2024-02-04T01:22:39;7.50;72.29
65707;SHT31;52423;43.512;5.220;2024-02-04T01:25:05;7.55;72.03
65707;SHT31;52423;43.512;5.220;2024-02-04T01:27:31;7.50;72.04
65707;SHT31;52423;43.512;5.220;2024-02-04T01:29:56;7.43;72.27
65707;SHT31;52423;43.512;5.220;2024-02-04T01:32:22;7.33;72.48
65707;SHT31;52423;43.512;5.220;2024-02-04T01:34:47;7.32;72.45
65707;SHT31;52423;43.512;5.220;2024-02-04T01:37:12;7.29;73.10
65707;SHT31;52423;43.512;5.220;2024-02-04T01:39:38;7.29;72.71
65707;SHT31;52423;43.512;5.220;2024-02-04T01:42:03;7.25;72.75
65707;SHT31;52423;43.512;5.220;2024-02-04T01:44:30;7.25;72.86
65707;SHT31;52423;43.512;5.220;2024-02-04T01:46:56;7.25;72.75
65707;SHT31;52423;43.512;5.220;2024-02-04T01:49:21;7.25;72.97
65707;SHT31;52423;43.512;5.220;2024-02-04T01:51:47;7.23;72.74
65707;SHT31;52423;43.512;5.220;2024-02-04T01:54:12;7.16;73.02
65707;SHT31;52423;43.512;5.220;2024-02-04T01:56:38;7.15;73.12
65707;SHT31;52423;43.512;5.220;2024-02-04T01:59:03;7.12;73.41
65707;SHT31;52423;43.512;5.220;2024-02-04T02:01:29;7.12;73.53
65707;SHT31;52423;43.512;5.220;2024-02-04T02:03:54;7.01;74.13
65707;SHT31;52423;43.512;5.220;2024-02-04T02:06:21;7.01;74.33
65707;SHT31;52423;43.512;5.220;2024-02-04T02:08:46;7.05;74.27
65707;SHT31;52423;43.512;5.220;2024-02-04T02:11:33;7.18;73.55
65707;SHT31;52423;43.512;5.220;2024-02-04T02:14:04;7.16;73.39
65707;SHT31;52423;43.512;5.220;2024-02-04T02:16:33;7.12;73.56
65707;SHT31;52423;43.512;5.220;2024-02-04T02:26:49;6.92;73.95
65707;SHT31;52423;43.512;5.220;2024-02-04T02:29:15;6.90;74.10
65707;SHT31;52423;43.512;5.220;2024-02-04T02:31:41;6.90;74.27
65707;SHT31;52423;43.512;5.220;2024-02-04T02:34:07;6.84;74.64
65707;SHT31;52423;43.512;5.220;2024-02-04T02:36:44;6.83;74.75
65707;SHT31;52423;43.512;5.220;2024-02-04T02:39:18;6.81;75.11
65707;SHT31;52423;43.512;5.220;2024-02-04T02:41:49;6.81;75.39
65707;SHT31;52423;43.512;5.220;2024-02-04T02:44:16;6.80;75.44
65707;SHT31;52423;43.512;5.220;2024-02-04T02:46:42;6.83;75.39
65707;SHT31;52423;43.512;5.220;2024-02-04T02:49:08;6.85;75.21
65707;SHT31;52423;43.512;5.220;2024-02-04T02:51:33;6.88;74.81
65707;SHT31;52423;43.512;5.220;2024-02-04T02:53:59;6.84;75.62
65707;SHT31;52423;43.512;5.220;2024-02-04T02:56:24;6.85;75.07
65707;SHT31;52423;43.512;5.220;2024-02-04T02:58:50;6.92;75.25
65707;SHT31;52423;43.512;5.220;2024-02-04T03:01:15;6.83;75.68
65707;SHT31;52423;43.512;5.220;2024-02-04T03:03:40;6.84;75.45
65707;SHT31;52423;43.512;5.220;2024-02-04T03:06:06;6.87;75.87
65707;SHT31;52423;43.512;5.220;2024-02-04T03:08:31;6.94;75.06
65707;SHT31;52423;43.512;5.220;2024-02-04T03:10:57;6.84;75.63
65707;SHT31;52423;43.512;5.220;2024-02-04T03:13:22;6.84;75.52
65707;SHT31;52423;43.512;5.220;2024-02-04T03:15:48;6.87;75.76
65707;SHT31;52423;43.512;5.220;2024-02-04T03:18:13;6.85;75.11
65707;SHT31;52423;43.512;5.220;2024-02-04T03:20:39;6.83;75.02
65707;SHT31;52423;43.512;5.220;2024-02-04T03:23:04;6.81;75.28
65707;SHT31;52423;43.512;5.220;2024-02-04T03:25:29;6.81;75.53
65707;SHT31;52423;43.512;5.220;2024-02-04T03:27:55;6.77;75.54
65707;SHT31;52423;43.512;5.220;2024-02-04T03:30:20;6.77;75.85
65707;SHT31;52423;43.512;5.220;2024-02-04T03:32:46;6.78;75.65
65707;SHT31;52423;43.512;5.220;2024-02-04T03:35:12;6.68;75.75
65707;SHT31;52423;43.512;5.220;2024-02-04T03:37:37;6.70;75.94
65707;SHT31;52423;43.512;5.220;2024-02-04T03:40:03;6.64;76.14
65707;SHT31;52423;43.512;5.220;2024-02-04T03:42:28;6.64;76.26
65707;SHT31;52423;43.512;5.220;2024-02-04T03:44:53;6.63;76.43
65707;SHT31;52423;43.512;5.220;2024-02-04T03:47:19;6.60;77.00
65707;SHT31;52423;43.512;5.220;2024-02-04T03:49:44;6.60;76.98
65707;SHT31;52423;43.512;5.220;2024-02-04T03:52:10;6.60;77.05
65707;SHT31;52423;43.512;5.220;2024-02-04T03:54:35;6.66;76.54
65707;SHT31;52423;43.512;5.220;2024-02-04T03:57:00;6.54;76.66
65707;SHT31;52423;43.512;5.220;2024-02-04T03:59:26;6.58;76.96
65707;SHT31;52423;43.512;5.220;2024-02-04T04:01:51;6.64;76.72
65707;SHT31;52423;43.512;5.220;2024-02-04T04:04:19;6.64;77.19
65707;SHT31;52423;43.512;5.220;2024-02-04T04:06:45;6.67;76.66
65707;SHT31;52423;43.512;5.220;2024-02-04T04:09:10;6.61;76.39
65707;SHT31;52423;43.512;5.220;2024-02-04T04:11:36;6.57;76.18
65707;SHT31;52423;43.512;5.220;2024-02-04T04:14:01;6.51;76.65
65707;SHT31;52423;43.512;5.220;2024-02-04T04:16:27;6.47;76.26
65707;SHT31;52423;43.512;5.220;2024-02-04T04:18:52;6.49;76.38
65707;SHT31;52423;43.512;5.220;2024-02-04T04:21:18;6.44;76.34
65707;SHT31;52423;43.512;5.220;2024-02-04T04:23:43;6.30;76.96
65707;SHT31;52423;43.512;5.220;2024-02-04T04:26:09;6.28;76.69
65707;SHT31;52423;43.512;5.220;2024-02-04T04:28:34;6.20;77.47
65707;SHT31;52423;43.512;5.220;2024-02-04T04:31:00;6.29;76.81
65707;SHT31;52423;43.512;5.220;2024-02-04T04:33:25;6.28;77.20
65707;SHT31;52423;43.512;5.220;2024-02-04T04:35:51;6.30;77.18
65707;SHT31;52423;43.512;5.220;2024-02-04T04:38:16;6.29;76.84
65707;SHT31;52423;43.512;5.220;2024-02-04T04:40:42;6.20;77.25
65707;SHT31;52423;43.512;5.220;2024-02-04T04:43:07;6.19;77.48
65707;SHT31;52423;43.512;5.220;2024-02-04T04:45:33;6.20;77.19
65707;SHT31;52423;43.512;5.220;2024-02-04T04:47:58;6.09;77.96
65707;SHT31;52423;43.512;5.220;2024-02-04T04:50:23;6.09;77.67
65707;SHT31;52423;43.512;5.220;2024-02-04T04:52:49;6.09;78.04
65707;SHT31;52423;43.512;5.220;2024-02-04T04:55:14;6.08;78.07
65707;SHT31;52423;43.512;5.220;2024-02-04T04:57:40;6.09;77.55
65707;SHT31;52423;43.512;5.220;2024-02-04T05:00:06;5.99;78.12
65707;SHT31;52423;43.512;5.220;2024-02-04T05:02:35;6.08;77.70
65707;SHT31;52423;43.512;5.220;2024-02-04T05:05:00;6.06;77.50
65707;SHT31;52423;43.512;5.220;2024-02-04T05:07:26;6.05;77.75
65707;SHT31;52423;43.512;5.220;2024-02-04T05:09:51;6.02;77.75
65707;SHT31;52423;43.512;5.220;2024-02-04T05:12:17;6.01;77.74
65707;SHT31;52423;43.512;5.220;2024-02-04T05:14:42;5.99;77.95
65707;SHT31;52423;43.512;5.220;2024-02-04T05:17:08;5.88;78.59
65707;SHT31;52423;43.512;5.220;2024-02-04T05:19:34;5.84;78.41
65707;SHT31;52423;43.512;5.220;2024-02-04T05:22:00;5.79;78.33
65707;SHT31;52423;43.512;5.220;2024-02-04T05:24:25;5.74;78.22
65707;SHT31;52423;43.512;5.220;2024-02-04T05:26:51;5.72;78.62
65707;SHT31;52423;43.512;5.220;2024-02-04T05:29:16;5.59;79.23
65707;SHT31;52423;43.512;5.220;2024-02-04T05:31:42;5.62;79.19
65707;SHT31;52423;43.512;5.220;2024-02-04T05:34:08;5.64;78.93
65707;SHT31;52423;43.512;5.220;2024-02-04T05:36:34;5.64;79.07
65707;SHT31;52423;43.512;5.220;2024-02-04T05:39:13;5.78;78.95
65707;SHT31;52423;43.512;5.220;2024-02-04T05:41:39;5.78;78.01
65707;SHT31;52423;43.512;5.220;2024-02-04T05:44:05;5.65;78.39
65707;SHT31;52423;43.512;5.220;2024-02-04T05:46:31;5.69;79.22
65707;SHT31;52423;43.512;5.220;2024-02-04T05:48:56;5.59;79.35
65707;SHT31;52423;43.512;5.220;2024-02-04T05:51:22;5.68;79.75
65707;SHT31;52423;43.512;5.220;2024-02-04T05:53:47;5.71;79.70
65707;SHT31;52423;43.512;5.220;2024-02-04T05:56:13;5.72;79.40
65707;SHT31;52423;43.512;5.220;2024-02-04T05:58:39;5.79;79.25
65707;SHT31;52423;43.512;5.220;2024-02-04T06:01:05;5.72;78.69
65707;SHT31;52423;43.512;5.220;2024-02-04T06:03:30;5.71;79.18
65707;SHT31;52423;43.512;5.220;2024-02-04T06:05:55;5.65;79.72
65707;SHT31;52423;43.512;5.220;2024-02-04T06:08:21;5.55;79.75
65707;SHT31;52423;43.512;5.220;2024-02-04T06:10:46;5.59;79.71
65707;SHT31;52423;43.512;5.220;2024-02-04T06:13:11;5.61;80.05
65707;SHT31;52423;43.512;5.220;2024-02-04T06:15:37;5.59;80.07
65707;SHT31;52423;43.512;5.220;2024-02-04T06:18:02;5.57;79.38
65707;SHT31;52423;43.512;5.220;2024-02-04T06:20:28;5.46;80.00
65707;SHT31;52423;43.512;5.220;2024-02-04T06:22:53;5.44;79.99
65707;SHT31;52423;43.512;5.220;2024-02-04T06:25:19;5.51;79.59
65707;SHT31;52423;43.512;5.220;2024-02-04T06:27:44;5.48;80.11
65707;SHT31;52423;43.512;5.220;2024-02-04T06:30:10;5.43;80.47
65707;SHT31;52423;43.512;5.220;2024-02-04T06:32:35;5.44;79.86
65707;SHT31;52423;43.512;5.220;2024-02-04T06:35:01;5.43;79.96
65707;SHT31;52423;43.512;5.220;2024-02-04T06:37:26;5.40;79.76
65707;SHT31;52423;43.512;5.220;2024-02-04T06:39:54;5.38;80.19
65707;SHT31;52423;43.512;5.220;2024-02-04T06:42:20;5.46;80.06
65707;SHT31;52423;43.512;5.220;2024-02-04T06:44:45;5.47;80.34
65707;SHT31;52423;43.512;5.220;2024-02-04T06:47:11;5.51;80.17
65707;SHT31;52423;43.512;5.220;2024-02-04T06:49:43;5.47;79.52
65707;SHT31;52423;43.512;5.220;2024-02-04T06:52:08;5.44;79.97
65707;SHT31;52423;43.512;5.220;2024-02-04T06:54:34;5.33;80.83
65707;SHT31;52423;43.512;5.220;2024-02-04T06:56:59;5.33;81.13
65707;SHT31;52423;43.512;5.220;2024-02-04T06:59:25;5.38;80.22
65707;SHT31;52423;43.512;5.220;2024-02-04T07:01:50;5.31;80.53
65707;SHT31;52423;43.512;5.220;2024-02-04T07:04:15;5.36;79.75
65707;SHT31;52423;43.512;5.220;2024-02-04T07:06:41;5.24;80.35
65707;SHT31;52423;43.512;5.220;2024-02-04T07:09:06;5.31;80.13
65707;SHT31;52423;43.512;5.220;2024-02-04T07:11:32;5.34;80.83
65707;SHT31;52423;43.512;5.220;2024-02-04T07:13:58;5.38;80.77
65707;SHT31;52423;43.512;5.220;2024-02-04T07:16:26;5.33;80.98
65707;SHT31;52423;43.512;5.220;2024-02-04T07:18:52;5.40;80.40
65707;SHT31;52423;43.512;5.220;2024-02-04T07:21:17;5.36;80.83
65707;SHT31;52423;43.512;5.220;2024-02-04T07:23:43;5.43;80.82
65707;SHT31;52423;43.512;5.220;2024-02-04T07:26:08;5.52;80.55
65707;SHT31;52423;43.512;5.220;2024-02-04T07:28:34;5.54;80.83
65707;SHT31;52423;43.512;5.220;2024-02-04T07:30:59;5.59;81.21
65707;SHT31;52423;43.512;5.220;2024-02-04T07:33:25;5.62;80.63
65707;SHT31;52423;43.512;5.220;2024-02-04T07:35:50;5.71;80.38
65707;SHT31;52423;43.512;5.220;2024-02-04T07:38:16;5.75;81.00
65707;SHT31;52423;43.512;5.220;2024-02-04T07:40:42;5.78;80.82
65707;SHT31;52423;43.512;5.220;2024-02-04T07:43:08;5.85;81.11
65707;SHT31;52423;43.512;5.220;2024-02-04T07:45:34;5.94;80.41
65707;SHT31;52423;43.512;5.220;2024-02-04T07:47:59;6.13;79.94
65707;SHT31;52423;43.512;5.220;2024-02-04T07:50:25;6.20;79.39
65707;SHT31;52423;43.512;5.220;2024-02-04T07:52:51;6.37;79.60
65707;SHT31;52423;43.512;5.220;2024-02-04T07:55:17;6.44;78.41
65707;SHT31;52423;43.512;5.220;2024-02-04T07:57:42;6.64;79.49
65707;SHT31;52423;43.512;5.220;2024-02-04T08:00:07;6.74;78.17
65707;SHT31;52423;43.512;5.220;2024-02-04T08:02:35;6.97;77.31
65707;SHT31;52423;43.512;5.220;2024-02-04T08:05:01;7.11;76.76
65707;SHT31;52423;43.512;5.220;2024-02-04T08:07:26;7.26;77.57
65707;SHT31;52423;43.512;5.220;2024-02-04T08:09:52;7.50;75.16
65707;SHT31;52423;43.512;5.220;2024-02-04T08:12:17;7.76;74.61
65707;SHT31;52423;43.512;5.220;2024-02-04T08:14:43;7.90;74.65
65707;SHT31;52423;43.512;5.220;2024-02-04T08:17:08;8.08;75.48
65707;SHT31;52423;43.512;5.220;2024-02-04T08:19:33;8.32;74.86
65707;SHT31;52423;43.512;5.220;2024-02-04T08:22:00;8.70;73.14
65707;SHT31;52423;43.512;5.220;2024-02-04T08:24:25;8.72;71.65
65707;SHT31;52423;43.512;5.220;2024-02-04T08:26:51;9.00;72.85
65707;SHT31;52423;43.512;5.220;2024-02-04T08:29:16;8.80;71.49
65707;SHT31;52423;43.512;5.220;2024-02-04T08:31:42;8.89;71.59
65707;SHT31;52423;43.512;5.220;2024-02-04T08:34:07;9.06;72.11
65707;SHT31;52423;43.512;5.220;2024-02-04T08:36:33;9.00;72.22
65707;SHT31;52423;43.512;5.220;2024-02-04T08:38:58;9.04;72.06
65707;SHT31;52423;43.512;5.220;2024-02-04T08:41:24;9.21;71.27
65707;SHT31;52423;43.512;5.220;2024-02-04T08:43:49;9.24;71.37
65707;SHT31;52423;43.512;5.220;2024-02-04T08:46:15;9.31;71.96
65707;SHT31;52423;43.512;5.220;2024-02-04T08:48:41;9.28;71.28
65707;SHT31;52423;43.512;5.220;2024-02-04T08:51:13;9.55;69.98
65707;SHT31;52423;43.512;5.220;2024-02-04T08:53:41;9.62;70.50
65707;SHT31;52423;43.512;5.220;2024-02-04T08:56:07;9.68;70.24
65707;SHT31;52423;43.512;5.220;2024-02-04T08:58:33;9.89;70.06
65707;SHT31;52423;43.512;5.220;2024-02-04T09:00:59;10.12;69.22
65707;SHT31;52423;43.512;5.220;2024-02-04T09:03:24;10.22;69.28
65707;SHT31;52423;43.512;5.220;2024-02-04T09:05:49;10.36;68.31
65707;SHT31;52423;43.512;5.220;2024-02-04T09:08:15;10.44;67.46
65707;SHT31;52423;43.512;5.220;2024-02-04T09:10:40;10.51;67.47
65707;SHT31;52423;43.512;5.220;2024-02-04T09:13:06;10.63;67.89
65707;SHT31;52423;43.512;5.220;2024-02-04T09:15:32;10.74;66.30
65707;SHT31;52423;43.512;5.220;2024-02-04T09:17:57;10.90;66.64
65707;SHT31;52423;43.512;5.220;2024-02-04T09:20:22;10.87;66.69
65707;SHT31;52423;43.512;5.220;2024-02-04T09:22:48;11.02;65.79
65707;SHT31;52423;43.512;5.220;2024-02-04T09:25:13;11.08;66.51
65707;SHT31;52423;43.512;5.220;2024-02-04T09:27:39;11.18;65.89
65707;SHT31;52423;43.512;5.220;2024-02-04T09:30:05;11.21;64.51
65707;SHT31;52423;43.512;5.220;2024-02-04T09:32:31;11.26;64.25
65707;SHT31;52423;43.512;5.220;2024-02-04T09:34:56;11.31;63.76
65707;SHT31;52423;43.512;5.220;2024-02-04T09:37:22;11.35;64.36
65707;SHT31;52423;43.512;5.220;2024-02-04T09:39:47;11.44;63.49
65707;SHT31;52423;43.512;5.220;2024-02-04T09:42:20;11.53;63.23
65707;SHT31;52423;43.512;5.220;2024-02-04T09:44:48;11.70;63.79
65707;SHT31;52423;43.512;5.220;2024-02-04T09:47:14;11.83;64.30
65707;SHT31;52423;43.512;5.220;2024-02-04T09:49:40;11.90;63.39
65707;SHT31;52423;43.512;5.220;2024-02-04T09:52:09;12.08;61.89
65707;SHT31;52423;43.512;5.220;2024-02-04T09:54:44;12.21;63.38
65707;SHT31;52423;43.512;5.220;2024-02-04T09:57:10;12.30;61.47
65707;SHT31;52423;43.512;5.220;2024-02-04T09:59:36;12.30;61.09
65707;SHT31;52423;43.512;5.220;2024-02-04T10:02:03;12.38;63.04
65707;SHT31;52423;43.512;5.220;2024-02-04T10:04:29;12.42;60.21
65707;SHT31;52423;43.512;5.220;2024-02-04T10:06:55;12.46;59.60
65707;SHT31;52423;43.512;5.220;2024-02-04T10:09:21;12.44;60.45
65707;SHT31;52423;43.512;5.220;2024-02-04T10:11:46;12.37;61.16
65707;SHT31;52423;43.512;5.220;2024-02-04T10:14:12;12.44;61.26
65707;SHT31;52423;43.512;5.220;2024-02-04T10:16:37;12.52;60.97
65707;SHT31;52423;43.512;5.220;2024-02-04T10:19:03;12.54;61.59
65707;SHT31;52423;43.512;5.220;2024-02-04T10:21:28;12.65;61.66
65707;SHT31;52423;43.512;5.220;2024-02-04T10:23:54;12.76;59.57
65707;SHT31;52423;43.512;5.220;2024-02-04T10:26:21;12.83;60.08
65707;SHT31;52423;43.512;5.220;2024-02-04T10:28:48;12.88;59.42
65707;SHT31;52423;43.512;5.220;2024-02-04T10:31:14;12.88;60.71
65707;SHT31;52423;43.512;5.220;2024-02-04T10:33:40;12.86;60.49
65707;SHT31;52423;43.512;5.220;2024-02-04T10:36:06;12.91;60.60
65707;SHT31;52423;43.512;5.220;2024-02-04T10:38:34;12.92;59.60
65707;SHT31;52423;43.512;5.220;2024-02-04T10:41:01;12.99;59.42
65707;SHT31;52423;43.512;5.220;2024-02-04T10:43:31;13.04;58.56
65707;SHT31;52423;43.512;5.220;2024-02-04T10:46:18;13.13;58.96
65707;SHT31;52423;43.512;5.220;2024-02-04T10:48:48;13.16;57.14
65707;SHT31;52423;43.512;5.220;2024-02-04T10:51:15;13.20;58.35
65707;SHT31;52423;43.512;5.220;2024-02-04T10:53:45;13.24;57.91
65707;SHT31;52423;43.512;5.220;2024-02-04T10:56:19;13.23;56.73
65707;SHT31;52423;43.512;5.220;2024-02-04T10:58:47;13.20;57.06
65707;SHT31;52423;43.512;5.220;2024-02-04T11:01:14;13.26;56.70
65707;SHT31;52423;43.512;5.220;2024-02-04T11:03:40;13.27;57.83
65707;SHT31;52423;43.512;5.220;2024-02-04T11:06:07;13.24;58.70
65707;SHT31;52423;43.512;5.220;2024-02-04T11:08:33;13.28;57.13
65707;SHT31;52423;43.512;5.220;2024-02-04T11:10:59;13.43;57.19
65707;SHT31;52423;43.512;5.220;2024-02-04T11:13:26;13.57;55.37
65707;SHT31;52423;43.512;5.220;2024-02-04T11:15:55;13.68;55.59
65707;SHT31;52423;43.512;5.220;2024-02-04T11:24:06;13.72;56.57
65707;SHT31;52423;43.512;5.220;2024-02-04T11:26:32;13.75;56.23
65707;SHT31;52423;43.512;5.220;2024-02-04T11:28:57;13.81;55.90
65707;SHT31;52423;43.512;5.220;2024-02-04T11:31:23;13.82;56.28
65707;SHT31;52423;43.512;5.220;2024-02-04T11:33:50;13.94;54.68
65707;SHT31;52423;43.512;5.220;2024-02-04T11:36:16;14.08;53.76
65707;SHT31;52423;43.512;5.220;2024-02-04T11:38:43;14.21;55.41
65707;SHT31;52423;43.512;5.220;2024-02-04T11:41:21;14.28;54.56
65707;SHT31;52423;43.512;5.220;2024-02-04T11:43:47;14.21;56.15
65707;SHT31;52423;43.512;5.220;2024-02-04T11:46:19;14.32;54.58
65707;SHT31;52423;43.512;5.220;2024-02-04T11:48:53;14.52;54.19
65707;SHT31;52423;43.512;5.220;2024-02-04T11:51:21;14.56;54.93
65707;SHT31;52423;43.512;5.220;2024-02-04T11:53:46;14.57;54.44
65707;SHT31;52423;43.512;5.220;2024-02-04T11:56:12;14.62;54.24
65707;SHT31;52423;43.512;5.220;2024-02-04T11:58:39;14.66;54.61
65707;SHT31;52423;43.512;5.220;2024-02-04T12:01:09;14.74;55.17
65707;SHT31;52423;43.512;5.220;2024-02-04T12:03:35;14.81;54.44
65707;SHT31;52423;43.512;5.220;2024-02-04T12:06:02;14.81;54.23
65707;SHT31;52423;43.512;5.220;2024-02-04T12:08:30;14.98;52.69
65707;SHT31;52423;43.512;5.220;2024-02-04T12:10:57;14.97;53.44
65707;SHT31;52423;43.512;5.220;2024-02-04T12:13:23;15.01;52.47
65707;SHT31;52423;43.512;5.220;2024-02-04T12:15:49;15.20;52.55
65707;SHT31;52423;43.512;5.220;2024-02-04T12:18:14;15.21;51.71
65707;SHT31;52423;43.512;5.220;2024-02-04T12:20:41;15.28;50.66
65707;SHT31;52423;43.512;5.220;2024-02-04T12:23:07;15.25;52.22
65707;SHT31;52423;43.512;5.220;2024-02-04T12:25:34;15.24;50.97
65707;SHT31;52423;43.512;5.220;2024-02-04T12:28:00;15.30;51.09
65707;SHT31;52423;43.512;5.220;2024-02-04T12:30:28;15.41;50.47
65707;SHT31;52423;43.512;5.220;2024-02-04T12:35:24;15.53;51.80
65707;SHT31;52423;43.512;5.220;2024-02-04T12:37:54;15.51;51.20
65707;SHT31;52423;43.512;5.220;2024-02-04T12:43:01;15.44;51.53
65707;SHT31;52423;43.512;5.220;2024-02-04T12:45:28;15.52;50.33
65707;SHT31;52423;43.512;5.220;2024-02-04T12:47:56;15.55;51.79
65707;SHT31;52423;43.512;5.220;2024-02-04T12:50:22;15.65;49.87
65707;SHT31;52423;43.512;5.220;2024-02-04T12:53:02;15.86;48.82
65707;SHT31;52423;43.512;5.220;2024-02-04T12:55:28;15.93;49.68
65707;SHT31;52423;43.512;5.220;2024-02-04T12:58:05;15.96;49.56
65707;SHT31;52423;43.512;5.220;2024-02-04T13:00:35;15.93;49.79
65707;SHT31;52423;43.512;5.220;2024-02-04T13:03:02;16.00;48.25
65707;SHT31;52423;43.512;5.220;2024-02-04T13:05:27;16.07;48.30
65707;SHT31;52423;43.512;5.220;2024-02-04T13:07:56;16.04;48.97
65707;SHT31;52423;43.512;5.220;2024-02-04T13:10:26;16.16;48.61
65707;SHT31;52423;43.512;5.220;2024-02-04T13:13:02;16.25;48.97
65707;SHT31;52423;43.512;5.220;2024-02-04T13:15:32;16.31;46.85
65707;SHT31;52423;43.512;5.220;2024-02-04T13:17:58;16.38;48.62
65707;SHT31;52423;43.512;5.220;2024-02-04T13:20:24;16.35;47.57
65707;SHT31;52423;43.512;5.220;2024-02-04T13:22:49;16.38;47.48
65707;SHT31;52423;43.512;5.220;2024-02-04T13:25:15;16.53;45.81
65707;SHT31;52423;43.512;5.220;2024-02-04T13:27:40;16.61;44.49
65707;SHT31;52423;43.512;5.220;2024-02-04T13:30:07;16.64;44.63
65707;SHT31;52423;43.512;5.220;2024-02-04T13:32:40;16.69;44.03
65707;SHT31;52423;43.512;5.220;2024-02-04T13:35:06;16.62;44.50
65707;SHT31;52423;43.512;5.220;2024-02-04T13:37:36;16.74;43.48
65707;SHT31;52423;43.512;5.220;2024-02-04T13:40:04;16.68;44.31
65707;SHT31;52423;43.512;5.220;2024-02-04T13:42:31;16.78;43.45
65707;SHT31;52423;43.512;5.220;2024-02-04T13:44:56;16.86;42.90
65707;SHT31;52423;43.512;5.220;2024-02-04T13:47:22;16.75;44.22
65707;SHT31;52423;43.512;5.220;2024-02-04T13:49:47;16.72;43.48
65707;SHT31;52423;43.512;5.220;2024-02-04T13:52:14;16.75;43.66
65707;SHT31;52423;43.512;5.220;2024-02-04T13:54:39;16.81;43.70
65707;SHT31;52423;43.512;5.220;2024-02-04T13:57:05;16.86;43.36
65707;SHT31;52423;43.512;5.220;2024-02-04T13:59:30;16.82;43.74
65707;SHT31;52423;43.512;5.220;2024-02-04T14:01:56;16.86;42.98
65707;SHT31;52423;43.512;5.220;2024-02-04T14:04:21;16.86;43.16
65707;SHT31;52423;43.512;5.220;2024-02-04T14:06:47;16.89;43.24
65707;SHT31;52423;43.512;5.220;2024-02-04T14:09:12;17.01;42.85
65707;SHT31;52423;43.512;5.220;2024-02-04T14:11:38;16.99;42.83
65707;SHT31;52423;43.512;5.220;2024-02-04T14:14:03;16.96;43.71
65707;SHT31;52423;43.512;5.220;2024-02-04T14:16:29;16.85;44.06
65707;SHT31;52423;43.512;5.220;2024-02-04T14:18:55;16.79;44.97
65707;SHT31;52423;43.512;5.220;2024-02-04T14:21:21;16.85;43.12
65707;SHT31;52423;43.512;5.220;2024-02-04T14:23:46;16.84;44.17
65707;SHT31;52423;43.512;5.220;2024-02-04T14:26:18;16.79;44.32
65707;SHT31;52423;43.512;5.220;2024-02-04T14:28:44;16.76;43.58
65707;SHT31;52423;43.512;5.220;2024-02-04T14:31:09;16.78;43.87
65707;SHT31;52423;43.512;5.220;2024-02-04T14:33:35;16.85;41.38
65707;SHT31;52423;43.512;5.220;2024-02-04T14:36:00;16.86;42.81
65707;SHT31;52423;43.512;5.220;2024-02-04T14:38:26;16.86;43.77
65707;SHT31;52423;43.512;5.220;2024-02-04T14:40:52;16.78;43.11
65707;SHT31;52423;43.512;5.220;2024-02-04T14:43:17;16.78;42.00
65707;SHT31;52423;43.512;5.220;2024-02-04T14:45:43;16.78;41.31
65707;SHT31;52423;43.512;5.220;2024-02-04T14:48:09;16.72;42.15
65707;SHT31;52423;43.512;5.220;2024-02-04T14:50:34;16.75;42.37
65707;SHT31;52423;43.512;5.220;2024-02-04T14:53:00;16.81;39.89
65707;SHT31;52423;43.512;5.220;2024-02-04T14:55:27;16.85;38.98
65707;SHT31;52423;43.512;5.220;2024-02-04T14:57:52;16.92;39.85
65707;SHT31;52423;43.512;5.220;2024-02-04T15:00:18;17.02;38.56
65707;SHT31;52423;43.512;5.220;2024-02-04T15:02:46;17.05;38.23
65707;SHT31;52423;43.512;5.220;2024-02-04T15:05:11;16.96;39.52
65707;SHT31;52423;43.512;5.220;2024-02-04T15:07:37;17.01;39.88
65707;SHT31;52423;43.512;5.220;2024-02-04T15:10:02;16.92;39.66
65707;SHT31;52423;43.512;5.220;2024-02-04T15:12:28;17.01;39.71
65707;SHT31;52423;43.512;5.220;2024-02-04T15:14:54;16.93;40.10
65707;SHT31;52423;43.512;5.220;2024-02-04T15:17:20;16.89;38.57
65707;SHT31;52423;43.512;5.220;2024-02-04T15:19:45;16.98;38.39
65707;SHT31;52423;43.512;5.220;2024-02-04T15:22:12;16.96;38.63
65707;SHT31;52423;43.512;5.220;2024-02-04T15:24:38;16.99;38.22
65707;SHT31;52423;43.512;5.220;2024-02-04T15:27:04;17.02;38.38
65707;SHT31;52423;43.512;5.220;2024-02-04T15:29:35;17.02;39.40
65707;SHT31;52423;43.512;5.220;2024-02-04T15:32:02;17.06;37.39
65707;SHT31;52423;43.512;5.220;2024-02-04T15:34:27;16.99;38.65
65707;SHT31;52423;43.512;5.220;2024-02-04T15:37:00;16.91;38.16
65707;SHT31;52423;43.512;5.220;2024-02-04T15:39:25;16.91;38.23
65707;SHT31;52423;43.512;5.220;2024-02-04T15:41:50;16.88;38.30
65707;SHT31;52423;43.512;5.220;2024-02-04T15:44:16;16.96;38.94
65707;SHT31;52423;43.512;5.220;2024-02-04T15:46:42;16.98;37.60
65707;SHT31;52423;43.512;5.220;2024-02-04T15:49:10;16.93;38.31
65707;SHT31;52423;43.512;5.220;2024-02-04T15:51:38;16.84;38.21
65707;SHT31;52423;43.512;5.220;2024-02-04T15:54:04;16.82;37.95